createdAt,value
2022-11-19T00:02:12.549Z,93.48
2022-11-19T00:04:41.150Z,93.33
2022-11-19T00:07:10.718Z,93.29
2022-11-19T00:09:38.770Z,93.36
2022-11-19T00:12:24.931Z,93.58
2022-11-19T00:14:53.131Z,93.63
2022-11-19T00:17:22.464Z,93.73
2022-11-19T00:19:50.819Z,93.89
2022-11-19T00:22:20.507Z,93.85
2022-11-19T00:24:49.086Z,93.71
2022-11-19T00:27:18.382Z,93.58
2022-11-19T00:29:46.582Z,93.56
2022-11-19T00:32:15.667Z,93.64
2022-11-19T00:34:43.831Z,93.65
2022-11-19T00:37:12.210Z,93.73
2022-11-19T00:39:41.645Z,93.67
2022-11-19T00:42:11.448Z,93.68
2022-11-19T00:44:39.503Z,93.57
2022-11-19T00:47:10.363Z,93.36
2022-11-19T00:49:40.837Z,93.22
2022-11-19T00:52:11.743Z,93.46
2022-11-19T00:54:45.345Z,93.37
2022-11-19T00:57:13.886Z,93.32
2022-11-19T00:59:42.462Z,93.45
2022-11-19T01:02:10.399Z,93.47
2022-11-19T01:04:38.787Z,93.48
2022-11-19T01:07:06.781Z,93.54
2022-11-19T01:09:35.496Z,93.57
2022-11-19T01:12:05.262Z,93.50
2022-11-19T01:14:33.272Z,93.31
2022-11-19T01:17:01.272Z,93.20
2022-11-19T01:19:29.900Z,93.05
2022-11-19T01:21:58.353Z,92.86
2022-11-19T01:24:26.351Z,93.00
2022-11-19T01:26:54.725Z,93.26
2022-11-19T01:29:26.838Z,93.32
2022-11-19T01:31:54.781Z,93.31
2022-11-19T01:34:24.445Z,93.33
2022-11-19T01:36:53.796Z,93.23
2022-11-19T01:39:22.023Z,93.13
2022-11-19T01:41:51.281Z,93.05
2022-11-19T01:45:00.578Z,93.06
2022-11-19T01:47:28.941Z,93.23
2022-11-19T01:49:58.343Z,93.02
2022-11-19T01:52:26.289Z,92.87
2022-11-19T01:54:55.455Z,92.75
2022-11-19T01:57:23.829Z,93.00
2022-11-19T01:59:52.825Z,92.97
2022-11-19T02:02:24.692Z,92.99
2022-11-19T02:04:59.303Z,92.83
2022-11-19T02:07:29.464Z,92.98
2022-11-19T02:09:58.740Z,93.17
2022-11-19T02:12:35.936Z,93.25
2022-11-19T02:15:11.986Z,93.25
2022-11-19T02:17:51.038Z,93.26
2022-11-19T02:20:53.457Z,93.29
2022-11-19T02:23:44.828Z,93.07
2022-11-19T02:26:29.919Z,92.95
2022-11-19T02:29:08.735Z,92.97
2022-11-19T02:31:40.802Z,93.09
2022-11-19T02:34:13.056Z,93.06
2022-11-19T02:36:47.654Z,92.99
2022-11-19T02:39:20.170Z,92.94
2022-11-19T02:41:54.821Z,93.05
2022-11-19T02:44:45.662Z,93.25
2022-11-19T02:47:18.584Z,93.21
2022-11-19T02:49:46.785Z,93.33
2022-11-19T02:52:15.643Z,93.50
2022-11-19T02:54:43.693Z,93.54
2022-11-19T02:57:13.740Z,93.69
2022-11-19T03:00:01.474Z,93.81
2022-11-19T03:02:51.629Z,93.83
2022-11-19T03:05:22.055Z,93.66
2022-11-19T03:07:50.484Z,93.53
2022-11-19T03:10:22.474Z,93.42
2022-11-19T03:12:53.465Z,93.52
2022-11-19T03:15:46.549Z,93.49
2022-11-19T03:18:19.216Z,93.65
2022-11-19T03:20:50.641Z,93.72
2022-11-19T03:23:23.334Z,93.78
2022-11-19T03:25:54.911Z,93.72
2022-11-19T03:28:25.593Z,93.84
2022-11-19T03:30:55.207Z,93.73
2022-11-19T03:33:25.999Z,93.82
2022-11-19T03:35:59.373Z,93.77
2022-11-19T03:38:30.979Z,93.64
2022-11-19T03:40:59.165Z,93.54
2022-11-19T03:43:30.514Z,93.41
2022-11-19T03:46:02.920Z,93.44
2022-11-19T03:48:33.003Z,93.67
2022-11-19T03:51:07.659Z,93.58
2022-11-19T03:53:36.008Z,93.50
2022-11-19T03:56:07.060Z,93.44
2022-11-19T03:58:39.935Z,93.46
2022-11-19T04:01:09.299Z,93.32
2022-11-19T04:03:39.272Z,93.25
2022-11-19T04:06:08.365Z,93.22
2022-11-19T04:08:38.786Z,93.35
2022-11-19T04:13:36.571Z,93.18
2022-11-19T04:16:06.487Z,93.17
2022-11-19T04:18:35.836Z,93.19
2022-11-19T04:21:05.466Z,93.34
2022-11-19T04:23:33.618Z,93.30
2022-11-19T04:26:01.659Z,93.22
2022-11-19T04:28:29.575Z,93.10
2022-11-19T04:30:57.773Z,93.04
2022-11-19T04:33:27.030Z,93.11
2022-11-19T04:35:55.127Z,93.36
2022-11-19T04:38:25.653Z,93.35
2022-11-19T04:40:53.700Z,93.20
2022-11-19T04:43:22.191Z,93.31
2022-11-19T04:45:50.705Z,93.44
2022-11-19T04:48:20.193Z,93.76
2022-11-19T04:50:48.580Z,93.90
2022-11-19T04:53:16.958Z,93.81
2022-11-19T04:55:46.758Z,93.88
2022-11-19T04:58:15.429Z,93.75
2022-11-19T05:00:44.785Z,93.69
2022-11-19T05:03:13.049Z,93.57
2022-11-19T05:05:42.398Z,93.42
2022-11-19T05:08:10.887Z,93.62
2022-11-19T05:10:40.047Z,93.70
2022-11-19T05:13:10.045Z,93.78
2022-11-19T05:15:38.014Z,93.73
2022-11-19T05:18:06.226Z,93.67
2022-11-19T05:20:34.296Z,93.66
2022-11-19T05:23:02.584Z,93.53
2022-11-19T05:25:30.674Z,93.56
2022-11-19T05:27:59.326Z,93.51
2022-11-19T05:30:28.908Z,93.54
2022-11-19T05:32:57.567Z,93.52
2022-11-19T05:35:25.599Z,93.49
2022-11-19T05:37:54.650Z,93.49
2022-11-19T05:40:23.093Z,93.44
2022-11-19T05:42:51.323Z,93.30
2022-11-19T05:45:19.281Z,93.25
2022-11-19T05:47:49.011Z,93.20
2022-11-19T05:50:20.125Z,93.22
2022-11-19T05:52:50.777Z,93.21
2022-11-19T05:55:20.820Z,93.24
2022-11-19T05:57:51.534Z,93.24
2022-11-19T06:00:21.982Z,93.18
2022-11-19T06:02:51.501Z,93.34
2022-11-19T06:05:20.582Z,93.46
2022-11-19T06:07:48.595Z,93.40
2022-11-19T06:10:18.821Z,93.33
2022-11-19T06:12:48.361Z,93.37
2022-11-19T06:15:20.332Z,93.29
2022-11-19T06:17:49.658Z,93.31
2022-11-19T06:20:19.654Z,93.13
2022-11-19T06:22:47.710Z,92.84
2022-11-19T06:25:17.333Z,92.92
2022-11-19T06:27:46.249Z,93.33
2022-11-19T06:30:16.100Z,93.65
2022-11-19T06:32:44.389Z,93.90
2022-11-19T06:35:14.491Z,93.84
2022-11-19T06:37:44.122Z,93.84
2022-11-19T06:40:14.850Z,93.90
2022-11-19T06:42:46.116Z,93.91
2022-11-19T06:45:16.913Z,93.91
2022-11-19T06:47:51.309Z,93.84
2022-11-19T06:50:19.797Z,93.91
2022-11-19T06:52:51.408Z,93.95
2022-11-19T06:55:19.966Z,93.94
2022-11-19T06:57:48.946Z,93.95
2022-11-19T07:00:18.316Z,94.00
2022-11-19T07:02:49.047Z,93.87
2022-11-19T07:05:16.999Z,94.18
2022-11-19T07:07:47.862Z,94.28
2022-11-19T07:10:17.759Z,94.38
2022-11-19T07:12:47.548Z,94.28
2022-11-19T07:15:18.881Z,94.48
2022-11-19T07:17:46.900Z,94.52
2022-11-19T07:20:14.922Z,94.77
2022-11-19T07:22:44.408Z,94.81
2022-11-19T07:25:13.899Z,94.81
2022-11-19T07:27:49.431Z,94.73
2022-11-19T07:30:18.554Z,94.60
2022-11-19T07:32:47.315Z,94.47
2022-11-19T07:35:16.062Z,94.29
2022-11-19T07:37:44.594Z,94.32
2022-11-19T07:40:14.945Z,94.38
2022-11-19T07:42:50.720Z,94.37
2022-11-19T07:45:20.868Z,94.34
2022-11-19T07:47:49.398Z,94.40
2022-11-19T07:50:19.311Z,94.42
2022-11-19T07:52:47.685Z,94.61
2022-11-19T07:55:16.171Z,94.81
2022-11-19T07:57:45.659Z,95.28
2022-11-19T08:00:15.507Z,95.67
2022-11-19T08:02:43.511Z,96.03
2022-11-19T08:05:12.144Z,96.10
2022-11-19T08:07:40.359Z,96.07
2022-11-19T08:10:11.059Z,96.05
2022-11-19T08:12:40.073Z,96.00
2022-11-19T08:15:15.394Z,95.85
2022-11-19T08:18:01.163Z,95.83
2022-11-19T08:20:29.348Z,95.92
2022-11-19T08:22:58.878Z,95.95
2022-11-19T08:25:27.274Z,96.08
2022-11-19T08:27:55.451Z,96.11
2022-11-19T08:30:24.996Z,96.28
2022-11-19T08:32:53.614Z,96.35
2022-11-19T08:35:22.096Z,96.11
2022-11-19T08:37:54.002Z,95.70
2022-11-19T08:40:23.619Z,95.49
2022-11-19T08:43:01.542Z,95.17
2022-11-19T08:45:32.783Z,94.75
2022-11-19T08:48:04.548Z,94.47
2022-11-19T08:50:33.621Z,94.21
2022-11-19T08:53:03.700Z,93.90
2022-11-19T08:55:34.377Z,93.56
2022-11-19T08:58:03.421Z,93.31
2022-11-19T09:00:34.625Z,93.15
2022-11-19T09:03:03.065Z,93.10
2022-11-19T09:05:31.750Z,92.92
2022-11-19T09:08:01.880Z,93.02
2022-11-19T09:10:31.643Z,92.89
2022-11-19T09:13:00.960Z,92.77
2022-11-19T09:15:29.639Z,92.63
2022-11-19T09:18:02.351Z,92.55
2022-11-19T09:20:30.367Z,92.43
2022-11-19T09:23:00.399Z,92.39
2022-11-19T09:25:29.297Z,92.38
2022-11-19T09:27:57.873Z,92.67
2022-11-19T09:30:26.125Z,92.43
2022-11-19T09:32:56.507Z,91.93
2022-11-19T09:35:26.096Z,91.63
2022-11-19T09:37:54.437Z,91.41
2022-11-19T09:40:23.692Z,91.04
2022-11-19T09:43:01.491Z,90.62
2022-11-19T09:45:41.761Z,90.43
2022-11-19T09:48:19.361Z,89.92
2022-11-19T09:50:54.363Z,89.53
2022-11-19T09:53:23.807Z,88.70
2022-11-19T09:56:01.347Z,88.17
2022-11-19T09:58:35.735Z,87.76
2022-11-19T10:01:06.300Z,87.72
2022-11-19T10:03:40.359Z,87.01
2022-11-19T10:06:30.479Z,85.74
2022-11-19T10:09:10.410Z,84.37
2022-11-19T10:11:48.632Z,83.61
2022-11-19T10:14:29.897Z,82.64
2022-11-19T10:17:03.670Z,81.07
2022-11-19T10:19:42.099Z,81.37
2022-11-19T10:22:18.940Z,80.75
2022-11-19T10:24:52.958Z,80.02
2022-11-19T10:27:25.852Z,79.67
2022-11-19T10:29:55.973Z,79.73
2022-11-19T10:32:33.500Z,79.99
2022-11-19T10:35:05.058Z,80.41
2022-11-19T10:37:46.444Z,80.56
2022-11-19T10:40:17.343Z,79.64
2022-11-19T10:42:54.301Z,78.68
2022-11-19T10:45:24.283Z,78.09
2022-11-19T10:47:56.575Z,78.43
2022-11-19T10:50:25.789Z,78.05
2022-11-19T10:52:57.284Z,76.56
2022-11-19T10:55:29.604Z,76.49
2022-11-19T10:58:07.494Z,75.29
2022-11-19T11:00:36.850Z,72.72
2022-11-19T11:03:09.621Z,71.92
2022-11-19T11:05:55.509Z,71.57
2022-11-19T11:08:25.380Z,71.68
2022-11-19T11:10:54.508Z,71.60
2022-11-19T11:13:47.499Z,72.17
2022-11-19T11:16:19.297Z,72.28
2022-11-19T11:18:47.982Z,72.22
2022-11-19T11:21:30.906Z,71.88
2022-11-19T11:24:02.641Z,71.32
2022-11-19T11:26:33.760Z,71.79
2022-11-19T11:29:08.875Z,70.82
2022-11-19T11:31:40.248Z,71.13
2022-11-19T11:34:15.908Z,71.78
2022-11-19T11:36:47.277Z,72.09
2022-11-19T11:39:27.639Z,71.67
2022-11-19T11:42:16.016Z,70.97
2022-11-19T11:44:52.744Z,70.44
2022-11-19T11:47:22.447Z,70.24
2022-11-19T11:50:01.208Z,69.69
2022-11-19T11:52:32.573Z,69.61
2022-11-19T11:55:04.453Z,70.50
2022-11-19T11:57:36.744Z,71.08
2022-11-19T12:00:06.161Z,70.39
2022-11-19T12:02:37.015Z,70.51
2022-11-19T12:05:07.451Z,70.50
2022-11-19T12:08:06.309Z,70.95
2022-11-19T12:10:52.647Z,71.78
2022-11-19T12:13:51.666Z,71.91
2022-11-19T12:16:30.107Z,72.00
2022-11-19T12:19:11.884Z,72.59
2022-11-19T12:21:50.161Z,71.98
2022-11-19T12:24:30.505Z,71.83
2022-11-19T12:27:08.266Z,72.19
2022-11-19T12:29:42.624Z,72.01
2022-11-19T12:32:25.310Z,71.61
2022-11-19T12:35:10.898Z,71.50
2022-11-19T12:37:53.237Z,71.69
2022-11-19T12:40:38.305Z,71.45
2022-11-19T12:43:31.638Z,72.58
2022-11-19T12:46:10.586Z,72.85
2022-11-19T12:48:47.606Z,72.58
2022-11-19T12:51:24.262Z,72.41
2022-11-19T12:54:06.932Z,72.89
2022-11-19T12:56:42.683Z,72.75
2022-11-19T12:59:45.071Z,72.46
2022-11-19T13:02:17.958Z,72.41
2022-11-19T13:04:52.610Z,72.79
2022-11-19T13:07:23.133Z,73.07
2022-11-19T13:09:53.403Z,72.52
2022-11-19T13:12:24.300Z,72.69
2022-11-19T13:15:00.283Z,72.57
2022-11-19T13:17:31.334Z,73.21
2022-11-19T13:20:04.720Z,73.64
2022-11-19T13:22:36.407Z,73.11
2022-11-19T13:25:18.815Z,73.73
2022-11-19T13:27:48.909Z,73.80
2022-11-19T13:30:29.170Z,73.75
2022-11-19T13:33:06.746Z,74.66
2022-11-19T13:35:39.497Z,74.79
2022-11-19T13:38:16.280Z,74.68
2022-11-19T13:40:49.099Z,74.83
2022-11-19T13:43:36.685Z,74.86
2022-11-19T13:46:16.441Z,75.74
2022-11-19T13:48:49.442Z,76.09
2022-11-19T13:51:28.062Z,76.44
2022-11-19T13:54:02.694Z,77.31
2022-11-19T13:56:43.399Z,78.17
2022-11-19T13:59:26.279Z,79.10
2022-11-19T14:02:03.340Z,79.80
2022-11-19T14:04:58.396Z,80.58
2022-11-19T14:07:44.525Z,81.36
2022-11-19T14:10:18.534Z,81.57
2022-11-19T14:13:04.646Z,81.55
2022-11-19T14:16:01.894Z,81.60
2022-11-19T14:18:54.547Z,81.39
2022-11-19T14:22:01.600Z,81.31
2022-11-19T14:25:10.149Z,80.96
2022-11-19T14:27:40.006Z,80.89
2022-11-19T14:30:10.904Z,80.87
2022-11-19T14:32:47.563Z,80.78
2022-11-19T14:35:42.912Z,80.76
2022-11-19T14:38:34.550Z,80.33
2022-11-19T14:41:23.362Z,80.31
2022-11-19T14:44:10.671Z,80.34
2022-11-19T14:46:44.563Z,80.22
2022-11-19T14:49:42.382Z,80.43
2022-11-19T14:52:22.200Z,79.90
2022-11-19T14:54:55.472Z,80.15
2022-11-19T14:57:29.810Z,80.11
2022-11-19T15:00:00.237Z,79.82
2022-11-19T15:02:32.261Z,79.66
2022-11-19T15:05:05.461Z,79.51
2022-11-19T15:07:42.557Z,79.86
2022-11-19T15:10:30.562Z,80.11
2022-11-19T15:13:21.936Z,80.12
2022-11-19T15:15:53.019Z,79.93
2022-11-19T15:18:58.595Z,79.74
2022-11-19T15:22:08.605Z,79.58
2022-11-19T15:24:51.163Z,79.59
2022-11-19T15:27:27.838Z,79.63
2022-11-19T15:30:14.028Z,79.23
2022-11-19T15:33:03.643Z,79.25
2022-11-19T15:35:49.820Z,79.22
2022-11-19T15:38:29.547Z,79.20
2022-11-19T15:41:01.977Z,79.42
2022-11-19T15:43:32.432Z,79.58
2022-11-19T15:46:07.878Z,79.40
2022-11-19T15:48:40.794Z,79.43
2022-11-19T15:51:13.103Z,79.42
2022-11-19T15:53:58.438Z,79.41
2022-11-19T15:56:30.985Z,79.80
2022-11-19T15:59:01.595Z,79.53
2022-11-19T16:01:32.275Z,79.81
2022-11-19T16:04:04.923Z,80.32
2022-11-19T16:06:36.330Z,80.42
2022-11-19T16:09:08.030Z,80.56
2022-11-19T16:11:58.922Z,80.89
2022-11-19T16:14:47.338Z,80.94
2022-11-19T16:17:39.724Z,81.16
2022-11-19T16:20:21.808Z,81.42
2022-11-19T16:22:56.784Z,81.64
2022-11-19T16:25:37.381Z,81.74
2022-11-19T16:28:14.001Z,82.03
2022-11-19T16:30:50.592Z,82.09
2022-11-19T16:33:20.949Z,82.47
2022-11-19T16:35:52.867Z,82.61
2022-11-19T16:38:30.814Z,83.23
2022-11-19T16:41:17.839Z,83.61
2022-11-19T16:43:49.431Z,83.88
2022-11-19T16:46:20.886Z,83.96
2022-11-19T16:48:59.055Z,84.30
2022-11-19T16:51:39.947Z,84.38
2022-11-19T16:54:10.761Z,84.69
2022-11-19T16:56:42.300Z,84.70
2022-11-19T16:59:18.745Z,84.95
2022-11-19T17:01:53.516Z,85.22
2022-11-19T17:04:22.697Z,85.24
2022-11-19T17:06:52.051Z,85.48
2022-11-19T17:09:37.195Z,85.87
2022-11-19T17:12:23.037Z,86.01
2022-11-19T17:14:55.387Z,86.30
2022-11-19T17:17:40.284Z,86.58
2022-11-19T17:20:48.313Z,86.94
2022-11-19T17:23:19.402Z,87.27
2022-11-19T17:25:49.489Z,87.54
2022-11-19T17:28:21.601Z,87.83
2022-11-19T17:30:52.301Z,88.11
2022-11-19T17:33:23.658Z,88.38
2022-11-19T17:35:52.468Z,88.69
2022-11-19T17:38:23.947Z,88.90
2022-11-19T17:40:53.774Z,89.11
2022-11-19T17:43:42.731Z,89.25
2022-11-19T17:46:12.959Z,89.49
2022-11-19T17:48:47.196Z,89.74
2022-11-19T17:51:17.325Z,89.96
2022-11-19T17:53:46.018Z,90.14
2022-11-19T17:56:19.927Z,90.38
2022-11-19T17:58:48.590Z,90.55
2022-11-19T18:01:19.861Z,90.67
2022-11-19T18:03:48.752Z,90.79
2022-11-19T18:06:18.253Z,90.93
2022-11-19T18:08:48.104Z,91.08
2022-11-19T18:11:18.788Z,91.23
2022-11-19T18:13:54.413Z,91.39
2022-11-19T18:16:26.717Z,91.54
2022-11-19T18:18:59.801Z,91.66
2022-11-19T18:21:28.182Z,91.73
2022-11-19T18:23:57.742Z,91.91
2022-11-19T18:26:27.182Z,92.10
2022-11-19T18:28:56.567Z,92.26
2022-11-19T18:31:28.056Z,92.32
2022-11-19T18:33:57.390Z,92.35
2022-11-19T18:36:27.137Z,92.37
2022-11-19T18:38:57.647Z,92.42
2022-11-19T18:41:26.910Z,92.46
2022-11-19T18:44:13.061Z,92.48
2022-11-19T18:46:42.695Z,92.46
2022-11-19T18:49:15.575Z,92.50
2022-11-19T18:51:44.475Z,92.54
2022-11-19T18:54:12.895Z,92.55
2022-11-19T18:56:42.140Z,92.57
2022-11-19T18:59:12.251Z,92.56
2022-11-19T19:01:45.498Z,92.54
2022-11-19T19:04:15.267Z,92.55
2022-11-19T19:06:44.504Z,92.56
2022-11-19T19:09:19.496Z,92.53
2022-11-19T19:12:12.291Z,92.50
2022-11-19T19:14:41.724Z,92.47
2022-11-19T19:17:12.896Z,92.48
2022-11-19T19:19:43.288Z,92.48
2022-11-19T19:22:14.887Z,92.43
2022-11-19T19:24:47.120Z,92.43
2022-11-19T19:27:16.819Z,92.35
2022-11-19T19:29:47.876Z,92.28
2022-11-19T19:32:18.364Z,92.25
2022-11-19T19:34:46.579Z,92.28
2022-11-19T19:37:15.363Z,92.29
2022-11-19T19:39:43.638Z,92.24
2022-11-19T19:42:13.303Z,92.18
2022-11-19T19:44:42.076Z,92.12
2022-11-19T19:47:10.552Z,92.09
2022-11-19T19:49:39.811Z,91.99
2022-11-19T19:52:08.102Z,91.95
2022-11-19T19:54:37.234Z,91.95
2022-11-19T19:57:07.856Z,91.96
2022-11-19T19:59:36.006Z,91.96
2022-11-19T20:02:04.146Z,91.96
2022-11-19T20:04:34.059Z,91.92
2022-11-19T20:07:05.659Z,91.95
2022-11-19T20:09:37.180Z,91.95
2022-11-19T20:12:05.676Z,91.93
2022-11-19T20:14:36.245Z,91.85
2022-11-19T20:17:04.757Z,91.81
2022-11-19T20:19:33.684Z,91.79
2022-11-19T20:22:04.041Z,91.73
2022-11-19T20:24:34.748Z,91.67
2022-11-19T20:27:03.293Z,91.56
2022-11-19T20:29:31.722Z,91.40
2022-11-19T20:32:01.355Z,91.22
2022-11-19T20:34:29.524Z,91.07
2022-11-19T20:36:57.841Z,90.95
2022-11-19T20:39:27.392Z,90.87
2022-11-19T20:42:13.097Z,90.88
2022-11-19T20:44:42.343Z,90.91
2022-11-19T20:47:10.322Z,90.90
2022-11-19T20:49:40.406Z,90.99
2022-11-19T20:52:10.769Z,91.01
2022-11-19T20:54:41.856Z,91.06
2022-11-19T20:57:10.531Z,91.10
2022-11-19T20:59:38.619Z,91.10
2022-11-19T21:02:07.325Z,91.19
2022-11-19T21:04:37.302Z,91.29
2022-11-19T21:07:08.288Z,91.40
2022-11-19T21:09:37.744Z,91.49
2022-11-19T21:12:07.387Z,91.58
2022-11-19T21:14:36.047Z,91.66
2022-11-19T21:17:04.280Z,91.78
2022-11-19T21:19:32.569Z,91.88
2022-11-19T21:22:01.292Z,91.92
2022-11-19T21:24:32.699Z,92.01
2022-11-19T21:27:00.830Z,92.08
2022-11-19T21:29:33.242Z,92.16
2022-11-19T21:32:02.193Z,92.22
2022-11-19T21:34:31.532Z,92.28
2022-11-19T21:37:00.128Z,92.38
2022-11-19T21:39:28.341Z,92.41
2022-11-19T21:41:57.020Z,92.40
2022-11-19T21:44:26.381Z,92.46
2022-11-19T21:46:57.850Z,92.44
2022-11-19T21:49:26.233Z,92.48
2022-11-19T21:51:55.485Z,92.47
2022-11-19T21:54:26.313Z,92.50
2022-11-19T21:56:55.269Z,92.47
2022-11-19T21:59:23.433Z,92.51
2022-11-19T22:01:54.883Z,92.56
2022-11-19T22:04:24.814Z,92.49
2022-11-19T22:06:53.633Z,92.48
2022-11-19T22:09:23.609Z,92.55
2022-11-19T22:11:51.578Z,92.57
2022-11-19T22:14:19.861Z,92.55
2022-11-19T22:16:48.200Z,92.53
2022-11-19T22:19:16.445Z,92.58
2022-11-19T22:21:46.666Z,92.59
2022-11-19T22:24:16.432Z,92.66
2022-11-19T22:26:44.795Z,92.64
2022-11-19T22:29:13.084Z,92.69
2022-11-19T22:31:41.568Z,92.77
2022-11-19T22:34:12.212Z,92.81
2022-11-19T22:36:43.646Z,92.86
2022-11-19T22:39:15.830Z,92.84
2022-11-19T22:41:45.006Z,92.81
2022-11-19T22:44:15.531Z,92.80
2022-11-19T22:46:46.528Z,92.75
2022-11-19T22:49:16.151Z,92.78
2022-11-19T22:51:46.155Z,92.79
2022-11-19T22:54:16.065Z,92.83
2022-11-19T22:56:45.997Z,92.79
2022-11-19T22:59:14.461Z,92.78
2022-11-19T23:01:43.703Z,92.76
2022-11-19T23:04:15.517Z,92.76
2022-11-19T23:06:45.374Z,92.72
2022-11-19T23:09:15.525Z,92.77
2022-11-19T23:12:00.875Z,92.72
2022-11-19T23:14:33.411Z,92.72
2022-11-19T23:17:05.052Z,92.75
2022-11-19T23:19:36.023Z,92.69
2022-11-19T23:22:05.600Z,92.72
2022-11-19T23:24:35.012Z,92.71
2022-11-19T23:27:03.410Z,92.71
2022-11-19T23:29:31.671Z,92.69
2022-11-19T23:31:59.883Z,92.66
2022-11-19T23:34:31.984Z,92.65
2022-11-19T23:37:03.615Z,92.61
2022-11-19T23:39:31.746Z,92.56
2022-11-19T23:42:01.003Z,92.50
2022-11-19T23:44:32.963Z,92.47
2022-11-19T23:47:01.210Z,92.42
2022-11-19T23:49:29.893Z,92.37
2022-11-19T23:51:59.418Z,92.31
2022-11-19T23:54:31.551Z,92.18
2022-11-19T23:57:05.841Z,92.12
2022-11-19T23:59:34.856Z,92.05
